createdAt,value
2023-05-25T00:04:22.372Z,93370.81
2023-05-25T00:09:26.050Z,93372.81
2023-05-25T00:14:31.449Z,93359.53
2023-05-25T00:19:35.132Z,93365.47
2023-05-25T00:24:43.907Z,93367.47
2023-05-25T00:29:47.957Z,93355.34
2023-05-25T00:34:51.795Z,93357.31
2023-05-25T00:39:55.230Z,93358.50
2023-05-25T00:44:59.191Z,93357.31
2023-05-25T00:50:04.428Z,93363.56
2023-05-25T00:55:13.592Z,93360.75
2023-05-25T01:00:18.413Z,93360.31
2023-05-25T01:05:25.560Z,93348.16
2023-05-25T01:10:32.617Z,93362.59
2023-05-25T01:15:39.678Z,93357.03
2023-05-25T01:20:59.739Z,93361.28
2023-05-25T01:26:07.922Z,93370.31
2023-05-25T01:31:12.154Z,93361.75
2023-05-25T01:36:15.890Z,93369.59
2023-05-25T01:41:19.545Z,93376.63
2023-05-25T01:46:39.162Z,93359.72
2023-05-25T01:51:56.069Z,93355.38
2023-05-25T01:57:02.522Z,93365.81
2023-05-25T02:02:07.557Z,93372.44
2023-05-25T02:07:12.449Z,93375.56
2023-05-25T02:12:16.046Z,93369.31
2023-05-25T02:17:20.056Z,93350.50
2023-05-25T02:22:24.706Z,93352.38
2023-05-25T02:27:28.521Z,93345.22
2023-05-25T02:32:33.945Z,93342.38
2023-05-25T02:37:39.746Z,93340.34
2023-05-25T02:42:45.493Z,93326.91
2023-05-25T02:47:49.351Z,93360.28
2023-05-25T02:52:53.727Z,93382.31
2023-05-25T02:57:58.788Z,93403.53
2023-05-25T03:03:27.117Z,93401.63
2023-05-25T03:08:31.837Z,93393.09
2023-05-25T03:13:36.740Z,93389.97
2023-05-25T03:18:41.030Z,93403.06
2023-05-25T03:23:46.076Z,93416.53
2023-05-25T03:28:50.359Z,93427.69
2023-05-25T03:33:54.213Z,93428.88
2023-05-25T03:39:03.700Z,93431.66
2023-05-25T03:44:08.026Z,93430.56
2023-05-25T03:49:14.369Z,93455.25
2023-05-25T03:54:18.817Z,93457.19
2023-05-25T03:59:26.009Z,93467.38
2023-05-25T04:04:30.273Z,93461.50
2023-05-25T04:09:34.881Z,93450.16
2023-05-25T04:14:38.728Z,93444.25
2023-05-25T04:19:42.105Z,93443.78
2023-05-25T04:24:47.629Z,93428.78
2023-05-25T04:29:51.687Z,93422.75
2023-05-25T04:35:21.777Z,93426.47
2023-05-25T04:40:28.322Z,93430.31
2023-05-25T04:45:33.589Z,93429.78
2023-05-25T04:50:40.445Z,93436.69
2023-05-25T04:55:45.443Z,93448.34
2023-05-25T05:00:51.273Z,93449.84
2023-05-25T05:05:57.555Z,93442.31
2023-05-25T05:11:05.082Z,93437.41
2023-05-25T05:16:09.618Z,93423.88
2023-05-25T05:21:12.966Z,93432.34
2023-05-25T05:26:16.754Z,93431.84
2023-05-25T05:31:20.697Z,93436.59
2023-05-25T05:36:24.220Z,93419.22
2023-05-25T05:41:28.287Z,93421.53
2023-05-25T05:46:34.276Z,93414.00
2023-05-25T05:51:38.670Z,93420.78
2023-05-25T05:56:42.772Z,93416.66
2023-05-25T06:01:46.732Z,93432.63
2023-05-25T06:06:51.999Z,93438.09
2023-05-25T06:11:55.501Z,93452.09
2023-05-25T06:16:59.465Z,93447.72
2023-05-25T06:22:02.913Z,93449.16
2023-05-25T06:27:06.995Z,93439.28
2023-05-25T06:32:13.240Z,93436.59
2023-05-25T06:37:18.156Z,93453.75
2023-05-25T06:42:21.739Z,93460.00
2023-05-25T06:47:32.981Z,93472.97
2023-05-25T06:52:36.381Z,93467.28
2023-05-25T06:57:39.754Z,93463.47
2023-05-25T07:02:43.354Z,93462.28
2023-05-25T07:07:47.136Z,93460.78
2023-05-25T07:12:50.900Z,93448.81
2023-05-25T07:17:57.574Z,93449.28
2023-05-25T07:23:01.855Z,93444.84
2023-05-25T07:28:06.218Z,93446.97
2023-05-25T07:33:09.691Z,93438.81
2023-05-25T07:38:13.290Z,93431.34
2023-05-25T07:43:16.848Z,93432.38
2023-05-25T07:48:21.308Z,93428.66
2023-05-25T07:53:25.452Z,93436.91
2023-05-25T07:58:29.632Z,93451.81
2023-05-25T08:03:47.997Z,93452.44
2023-05-25T08:08:52.891Z,93451.75
2023-05-25T08:13:56.442Z,93471.81
2023-05-25T08:19:01.960Z,93464.78
2023-05-25T08:24:05.607Z,93465.44
2023-05-25T08:29:09.974Z,93474.59
2023-05-25T08:34:13.189Z,93469.63
2023-05-25T08:39:17.418Z,93476.38
2023-05-25T08:44:22.393Z,93477.50
2023-05-25T08:49:28.678Z,93482.28
2023-05-25T08:54:37.098Z,93494.88
2023-05-25T08:59:57.777Z,93473.28
2023-05-25T09:05:02.712Z,93495.63
2023-05-25T09:10:08.734Z,93505.94
2023-05-25T09:15:13.177Z,93492.22
2023-05-25T09:20:19.612Z,93501.25
2023-05-25T09:25:26.685Z,93493.66
2023-05-25T09:30:33.203Z,93487.16
2023-05-25T09:35:38.335Z,93493.41
2023-05-25T09:40:42.136Z,93496.75
2023-05-25T09:45:45.980Z,93490.03
2023-05-25T09:50:50.161Z,93487.97
2023-05-25T09:55:54.742Z,93494.78
2023-05-25T10:00:58.608Z,93487.75
2023-05-25T10:06:03.332Z,93494.81
2023-05-25T10:11:07.883Z,93480.16
2023-05-25T10:16:13.598Z,93483.53
2023-05-25T10:21:18.948Z,93484.03
2023-05-25T10:26:27.403Z,93468.56
2023-05-25T10:31:34.412Z,93464.47
2023-05-25T10:36:38.932Z,93451.97
2023-05-25T10:41:42.675Z,93442.22
2023-05-25T10:46:46.652Z,93444.56
2023-05-25T10:52:00.117Z,93445.59
2023-05-25T10:57:19.538Z,93448.84
2023-05-25T11:02:26.072Z,93455.81
2023-05-25T11:07:29.700Z,93459.69
2023-05-25T11:12:33.461Z,93457.00
2023-05-25T11:18:00.427Z,93437.22
2023-05-25T11:23:24.286Z,93468.72
2023-05-25T11:28:33.038Z,93474.97
2023-05-25T11:33:37.403Z,93477.53
2023-05-25T11:39:04.381Z,93473.56
2023-05-25T11:50:17.737Z,93468.06
2023-05-25T11:55:22.030Z,93448.16
2023-05-25T12:00:28.710Z,93466.47
2023-05-25T12:05:39.190Z,93466.22
2023-05-25T12:10:55.202Z,93469.94
2023-05-25T12:16:00.596Z,93479.84
2023-05-25T12:21:08.579Z,93482.72
2023-05-25T12:26:14.335Z,93467.50
2023-05-25T12:31:25.092Z,93474.56
2023-05-25T12:36:39.021Z,93485.91
2023-05-25T12:41:53.975Z,93472.44
2023-05-25T12:47:17.642Z,93471.84
2023-05-25T12:52:35.741Z,93463.59
2023-05-25T12:57:39.433Z,93445.19
2023-05-25T13:02:48.044Z,93458.19
2023-05-25T13:07:58.243Z,93430.66
2023-05-25T13:13:03.785Z,93434.03
2023-05-25T13:18:06.951Z,93445.28
2023-05-25T13:23:11.003Z,93434.63
2023-05-25T13:28:14.360Z,93442.16
2023-05-25T13:33:18.277Z,93429.88
2023-05-25T13:38:22.723Z,93438.75
2023-05-25T13:43:26.897Z,93450.44
2023-05-25T13:48:30.780Z,93444.94
2023-05-25T13:53:34.006Z,93426.25
2023-05-25T13:58:38.062Z,93447.00
2023-05-25T14:03:42.094Z,93444.31
2023-05-25T14:08:45.665Z,93434.66
2023-05-25T14:13:49.287Z,93417.75
2023-05-25T14:18:53.284Z,93428.25
2023-05-25T14:23:57.707Z,93412.03
2023-05-25T14:29:02.392Z,93415.28
2023-05-25T14:34:05.539Z,93428.69
2023-05-25T14:39:11.506Z,93427.66
2023-05-25T14:44:16.920Z,93435.53
2023-05-25T14:49:25.123Z,93441.06
2023-05-25T14:54:28.320Z,93423.66
2023-05-25T14:59:32.164Z,93426.25
2023-05-25T15:04:35.371Z,93440.25
2023-05-25T15:09:39.294Z,93419.38
2023-05-25T15:14:43.148Z,93431.00
2023-05-25T15:19:47.119Z,93415.41
2023-05-25T15:24:50.473Z,93439.06
2023-05-25T15:29:54.278Z,93417.16
2023-05-25T15:34:57.519Z,93427.13
2023-05-25T15:40:00.855Z,93415.81
2023-05-25T15:45:05.082Z,93413.44
2023-05-25T15:50:08.531Z,93397.38
2023-05-25T15:55:12.538Z,93417.13
2023-05-25T16:00:17.804Z,93424.78
2023-05-25T16:05:21.925Z,93430.13
2023-05-25T16:10:25.574Z,93403.44
2023-05-25T16:15:30.097Z,93418.53
2023-05-25T16:20:33.516Z,93440.13
2023-05-25T16:25:37.102Z,93413.88
2023-05-25T16:30:41.047Z,93434.97
2023-05-25T16:35:45.007Z,93445.53
2023-05-25T16:40:48.842Z,93417.84
2023-05-25T16:45:52.399Z,93431.56
2023-05-25T16:50:56.614Z,93444.97
2023-05-25T16:55:59.846Z,93443.16
2023-05-25T17:01:03.821Z,93433.56
2023-05-25T17:06:08.113Z,93435.31
2023-05-25T17:11:11.955Z,93445.09
2023-05-25T17:16:15.412Z,93426.91
2023-05-25T17:21:18.673Z,93432.63
2023-05-25T17:26:24.412Z,93433.34
2023-05-25T17:31:30.736Z,93421.53
2023-05-25T17:36:34.962Z,93447.72
2023-05-25T17:41:39.121Z,93435.19
2023-05-25T17:46:43.421Z,93436.50
2023-05-25T17:51:47.446Z,93448.75
2023-05-25T17:56:51.012Z,93449.31
2023-05-25T18:01:55.248Z,93452.88
2023-05-25T18:06:58.798Z,93471.56
2023-05-25T18:12:03.996Z,93473.09
2023-05-25T18:17:07.834Z,93478.94
2023-05-25T18:22:11.539Z,93489.81
2023-05-25T18:27:15.320Z,93495.06
2023-05-25T18:32:18.522Z,93494.78
2023-05-25T18:37:23.460Z,93503.25
2023-05-25T18:42:26.667Z,93509.25
2023-05-25T18:47:30.794Z,93493.72
2023-05-25T18:52:34.495Z,93496.00
2023-05-25T18:57:38.846Z,93512.94
2023-05-25T19:02:43.304Z,93509.34
2023-05-25T19:12:53.505Z,93532.81
2023-05-25T19:17:57.958Z,93532.81
2023-05-25T19:23:01.969Z,93551.69
2023-05-25T19:28:06.302Z,93528.41
2023-05-25T19:33:10.331Z,93555.91
2023-05-25T19:38:14.444Z,93561.44
2023-05-25T19:43:18.075Z,93561.97
2023-05-25T19:48:24.584Z,93565.16
2023-05-25T19:53:29.091Z,93573.88
2023-05-25T19:58:32.913Z,93573.94
2023-05-25T20:03:36.876Z,93568.53
2023-05-25T20:08:41.179Z,93586.88
2023-05-25T20:13:46.656Z,93588.47
2023-05-25T20:18:50.185Z,93593.25
2023-05-25T20:23:53.999Z,93579.25
2023-05-25T20:28:58.345Z,93582.66
2023-05-25T20:34:01.517Z,93586.88
2023-05-25T20:39:04.626Z,93590.50
2023-05-25T20:44:09.243Z,93577.19
2023-05-25T20:49:13.180Z,93570.81
2023-05-25T20:54:19.636Z,93553.13
2023-05-25T20:59:23.792Z,93548.75
2023-05-25T21:04:28.852Z,93545.63
2023-05-25T21:09:34.523Z,93552.22
2023-05-25T21:14:37.972Z,93552.16
2023-05-25T21:19:42.034Z,93542.84
2023-05-25T21:24:45.295Z,93546.41
2023-05-25T21:29:49.024Z,93531.38
2023-05-25T21:34:53.458Z,93523.13
2023-05-25T21:39:57.198Z,93527.75
2023-05-25T21:45:00.816Z,93525.78
2023-05-25T21:50:04.229Z,93507.38
2023-05-25T21:55:08.755Z,93509.22
2023-05-25T22:00:14.769Z,93497.94
2023-05-25T22:05:19.411Z,93503.38
2023-05-25T22:10:23.459Z,93493.22
2023-05-25T22:15:27.268Z,93512.50
2023-05-25T22:20:31.256Z,93509.09
2023-05-25T22:25:34.813Z,93494.34
2023-05-25T22:30:38.978Z,93496.34
2023-05-25T22:35:42.539Z,93497.63
2023-05-25T22:40:48.023Z,93485.16
2023-05-25T22:45:54.553Z,93496.22
2023-05-25T22:50:58.400Z,93482.69
2023-05-25T22:56:02.089Z,93491.78
2023-05-25T23:01:05.802Z,93490.28
2023-05-25T23:06:09.038Z,93477.47
2023-05-25T23:11:13.151Z,93480.63
2023-05-25T23:16:19.101Z,93485.78
2023-05-25T23:21:23.137Z,93471.81
2023-05-25T23:26:27.249Z,93488.31
2023-05-25T23:31:31.052Z,93489.16
2023-05-25T23:36:34.769Z,93471.22
2023-05-25T23:41:39.030Z,93478.16
2023-05-25T23:46:42.471Z,93469.59
2023-05-25T23:51:46.121Z,93471.13
2023-05-25T23:56:49.609Z,93474.59
